sensor_id;sensor_type;location;lat;lon;timestamp;P1;durP1;ratioP1;P2;durP2;ratioP2
35891;SDS011;21993;42.672;23.296;2023-08-30T00:00:43;9.23;;;6.90;;
35891;SDS011;21993;42.672;23.296;2023-08-30T00:03:10;8.50;;;6.07;;
35891;SDS011;21993;42.672;23.296;2023-08-30T00:05:38;10.50;;;7.00;;
35891;SDS011;21993;42.672;23.296;2023-08-30T00:08:05;8.83;;;5.67;;
35891;SDS011;21993;42.672;23.296;2023-08-30T00:10:30;8.47;;;6.30;;
35891;SDS011;21993;42.672;23.296;2023-08-30T00:12:55;7.07;;;5.63;;
35891;SDS011;21993;42.672;23.296;2023-08-30T00:15:21;8.20;;;5.70;;
35891;SDS011;21993;42.672;23.296;2023-08-30T00:17:46;8.33;;;6.00;;
35891;SDS011;21993;42.672;23.296;2023-08-30T00:20:13;10.80;;;5.70;;
35891;SDS011;21993;42.672;23.296;2023-08-30T00:22:38;6.33;;;5.17;;
35891;SDS011;21993;42.672;23.296;2023-08-30T00:25:04;7.53;;;5.27;;
35891;SDS011;21993;42.672;23.296;2023-08-30T00:27:30;8.67;;;4.57;;
35891;SDS011;21993;42.672;23.296;2023-08-30T00:29:55;7.67;;;4.83;;
35891;SDS011;21993;42.672;23.296;2023-08-30T00:32:21;11.50;;;4.97;;
35891;SDS011;21993;42.672;23.296;2023-08-30T00:34:49;7.10;;;5.40;;
35891;SDS011;21993;42.672;23.296;2023-08-30T00:37:15;9.30;;;4.83;;
35891;SDS011;21993;42.672;23.296;2023-08-30T00:39:40;7.20;;;5.20;;
35891;SDS011;21993;42.672;23.296;2023-08-30T00:42:06;6.50;;;5.07;;
35891;SDS011;21993;42.672;23.296;2023-08-30T00:44:32;6.17;;;5.17;;
35891;SDS011;21993;42.672;23.296;2023-08-30T00:46:59;9.83;;;5.10;;
35891;SDS011;21993;42.672;23.296;2023-08-30T00:49:26;6.50;;;5.37;;
35891;SDS011;21993;42.672;23.296;2023-08-30T00:51:52;8.53;;;5.80;;
35891;SDS011;21993;42.672;23.296;2023-08-30T00:54:18;8.13;;;4.70;;
35891;SDS011;21993;42.672;23.296;2023-08-30T00:56:44;6.67;;;4.73;;
35891;SDS011;21993;42.672;23.296;2023-08-30T00:59:09;7.20;;;5.00;;
35891;SDS011;21993;42.672;23.296;2023-08-30T01:01:35;6.80;;;4.30;;
35891;SDS011;21993;42.672;23.296;2023-08-30T01:04:04;7.73;;;5.00;;
35891;SDS011;21993;42.672;23.296;2023-08-30T01:06:29;8.00;;;5.33;;
35891;SDS011;21993;42.672;23.296;2023-08-30T01:08:55;7.90;;;5.07;;
35891;SDS011;21993;42.672;23.296;2023-08-30T01:11:31;6.80;;;4.80;;
35891;SDS011;21993;42.672;23.296;2023-08-30T01:14:06;13.17;;;4.90;;
35891;SDS011;21993;42.672;23.296;2023-08-30T01:16:35;6.47;;;4.60;;
35891;SDS011;21993;42.672;23.296;2023-08-30T01:19:02;8.97;;;5.13;;
35891;SDS011;21993;42.672;23.296;2023-08-30T01:21:50;6.00;;;4.37;;
35891;SDS011;21993;42.672;23.296;2023-08-30T01:24:26;9.03;;;4.60;;
35891;SDS011;21993;42.672;23.296;2023-08-30T01:29:39;6.77;;;4.53;;
35891;SDS011;21993;42.672;23.296;2023-08-30T01:32:08;5.70;;;4.30;;
35891;SDS011;21993;42.672;23.296;2023-08-30T01:34:35;5.07;;;3.90;;
35891;SDS011;21993;42.672;23.296;2023-08-30T01:37:02;6.83;;;4.70;;
35891;SDS011;21993;42.672;23.296;2023-08-30T01:39:31;8.60;;;4.97;;
35891;SDS011;21993;42.672;23.296;2023-08-30T01:41:57;7.90;;;4.70;;
35891;SDS011;21993;42.672;23.296;2023-08-30T01:44:28;10.13;;;4.80;;
35891;SDS011;21993;42.672;23.296;2023-08-30T01:46:55;7.37;;;4.47;;
35891;SDS011;21993;42.672;23.296;2023-08-30T01:49:22;6.80;;;4.60;;
35891;SDS011;21993;42.672;23.296;2023-08-30T01:51:49;5.63;;;4.70;;
35891;SDS011;21993;42.672;23.296;2023-08-30T01:54:17;7.50;;;4.57;;
35891;SDS011;21993;42.672;23.296;2023-08-30T01:56:44;5.30;;;4.10;;
35891;SDS011;21993;42.672;23.296;2023-08-30T01:59:10;6.43;;;4.70;;
35891;SDS011;21993;42.672;23.296;2023-08-30T02:01:36;6.97;;;4.60;;
35891;SDS011;21993;42.672;23.296;2023-08-30T02:04:01;5.63;;;4.07;;
35891;SDS011;21993;42.672;23.296;2023-08-30T02:06:29;7.37;;;4.40;;
35891;SDS011;21993;42.672;23.296;2023-08-30T02:09:04;6.90;;;4.67;;
35891;SDS011;21993;42.672;23.296;2023-08-30T02:11:46;5.33;;;4.60;;
35891;SDS011;21993;42.672;23.296;2023-08-30T02:14:15;6.23;;;4.53;;
35891;SDS011;21993;42.672;23.296;2023-08-30T02:16:43;6.73;;;4.33;;
35891;SDS011;21993;42.672;23.296;2023-08-30T02:19:10;8.20;;;4.90;;
35891;SDS011;21993;42.672;23.296;2023-08-30T02:21:37;7.63;;;4.33;;
35891;SDS011;21993;42.672;23.296;2023-08-30T02:24:03;7.27;;;4.73;;
35891;SDS011;21993;42.672;23.296;2023-08-30T02:26:29;6.60;;;4.67;;
35891;SDS011;21993;42.672;23.296;2023-08-30T02:28:54;6.77;;;4.70;;
35891;SDS011;21993;42.672;23.296;2023-08-30T02:31:20;5.43;;;4.63;;
35891;SDS011;21993;42.672;23.296;2023-08-30T02:33:45;5.00;;;4.30;;
35891;SDS011;21993;42.672;23.296;2023-08-30T02:36:10;10.53;;;5.43;;
35891;SDS011;21993;42.672;23.296;2023-08-30T02:38:36;7.73;;;4.60;;
35891;SDS011;21993;42.672;23.296;2023-08-30T02:41:01;7.03;;;5.37;;
35891;SDS011;21993;42.672;23.296;2023-08-30T02:43:27;8.27;;;5.27;;
35891;SDS011;21993;42.672;23.296;2023-08-30T02:45:52;6.17;;;5.47;;
35891;SDS011;21993;42.672;23.296;2023-08-30T02:48:18;8.33;;;5.30;;
35891;SDS011;21993;42.672;23.296;2023-08-30T02:50:43;7.53;;;5.23;;
35891;SDS011;21993;42.672;23.296;2023-08-30T02:53:08;8.53;;;5.33;;
35891;SDS011;21993;42.672;23.296;2023-08-30T02:55:34;8.30;;;5.67;;
35891;SDS011;21993;42.672;23.296;2023-08-30T02:58:00;6.33;;;4.70;;
35891;SDS011;21993;42.672;23.296;2023-08-30T03:00:25;8.67;;;4.87;;
35891;SDS011;21993;42.672;23.296;2023-08-30T03:02:51;6.90;;;4.73;;
35891;SDS011;21993;42.672;23.296;2023-08-30T03:05:17;7.33;;;4.97;;
35891;SDS011;21993;42.672;23.296;2023-08-30T03:07:43;10.17;;;5.13;;
35891;SDS011;21993;42.672;23.296;2023-08-30T03:10:09;10.17;;;5.27;;
35891;SDS011;21993;42.672;23.296;2023-08-30T03:12:34;6.87;;;4.93;;
35891;SDS011;21993;42.672;23.296;2023-08-30T03:15:00;7.70;;;5.07;;
35891;SDS011;21993;42.672;23.296;2023-08-30T03:17:25;5.93;;;4.87;;
35891;SDS011;21993;42.672;23.296;2023-08-30T03:19:51;10.77;;;5.13;;
35891;SDS011;21993;42.672;23.296;2023-08-30T03:22:20;7.23;;;4.60;;
35891;SDS011;21993;42.672;23.296;2023-08-30T03:24:46;8.90;;;5.17;;
35891;SDS011;21993;42.672;23.296;2023-08-30T03:27:11;7.83;;;5.53;;
35891;SDS011;21993;42.672;23.296;2023-08-30T03:29:36;8.10;;;4.40;;
35891;SDS011;21993;42.672;23.296;2023-08-30T03:32:02;6.73;;;5.00;;
35891;SDS011;21993;42.672;23.296;2023-08-30T03:34:27;7.13;;;4.50;;
35891;SDS011;21993;42.672;23.296;2023-08-30T03:36:53;10.80;;;5.30;;
35891;SDS011;21993;42.672;23.296;2023-08-30T03:39:21;12.70;;;4.47;;
35891;SDS011;21993;42.672;23.296;2023-08-30T03:41:47;11.20;;;4.87;;
35891;SDS011;21993;42.672;23.296;2023-08-30T03:44:13;9.57;;;4.70;;
35891;SDS011;21993;42.672;23.296;2023-08-30T03:46:38;6.87;;;4.63;;
35891;SDS011;21993;42.672;23.296;2023-08-30T03:49:03;9.63;;;4.73;;
35891;SDS011;21993;42.672;23.296;2023-08-30T03:51:29;9.63;;;4.73;;
35891;SDS011;21993;42.672;23.296;2023-08-30T03:53:54;7.33;;;4.77;;
35891;SDS011;21993;42.672;23.296;2023-08-30T03:56:22;6.67;;;4.20;;
35891;SDS011;21993;42.672;23.296;2023-08-30T03:58:47;11.80;;;4.87;;
35891;SDS011;21993;42.672;23.296;2023-08-30T04:01:13;10.33;;;4.43;;
35891;SDS011;21993;42.672;23.296;2023-08-30T04:03:38;9.50;;;5.13;;
35891;SDS011;21993;42.672;23.296;2023-08-30T04:06:04;12.20;;;5.47;;
35891;SDS011;21993;42.672;23.296;2023-08-30T04:08:29;8.43;;;4.93;;
35891;SDS011;21993;42.672;23.296;2023-08-30T04:10:55;7.73;;;4.50;;
35891;SDS011;21993;42.672;23.296;2023-08-30T04:13:20;8.67;;;4.33;;
35891;SDS011;21993;42.672;23.296;2023-08-30T04:15:46;7.03;;;4.47;;
35891;SDS011;21993;42.672;23.296;2023-08-30T04:18:11;10.43;;;4.90;;
35891;SDS011;21993;42.672;23.296;2023-08-30T04:20:42;12.00;;;4.57;;
35891;SDS011;21993;42.672;23.296;2023-08-30T04:23:08;7.93;;;4.50;;
35891;SDS011;21993;42.672;23.296;2023-08-30T04:25:34;7.53;;;5.43;;
35891;SDS011;21993;42.672;23.296;2023-08-30T04:27:59;10.73;;;5.07;;
35891;SDS011;21993;42.672;23.296;2023-08-30T04:30:25;11.27;;;5.03;;
35891;SDS011;21993;42.672;23.296;2023-08-30T04:32:50;8.03;;;4.30;;
35891;SDS011;21993;42.672;23.296;2023-08-30T04:35:16;8.30;;;3.90;;
35891;SDS011;21993;42.672;23.296;2023-08-30T04:37:42;7.57;;;4.30;;
35891;SDS011;21993;42.672;23.296;2023-08-30T04:40:07;7.57;;;4.50;;
35891;SDS011;21993;42.672;23.296;2023-08-30T04:42:34;7.37;;;4.30;;
35891;SDS011;21993;42.672;23.296;2023-08-30T04:44:59;8.67;;;4.03;;
35891;SDS011;21993;42.672;23.296;2023-08-30T04:47:26;11.27;;;3.90;;
35891;SDS011;21993;42.672;23.296;2023-08-30T04:49:52;6.20;;;3.87;;
35891;SDS011;21993;42.672;23.296;2023-08-30T04:52:18;6.57;;;4.03;;
35891;SDS011;21993;42.672;23.296;2023-08-30T04:54:43;17.33;;;4.73;;
35891;SDS011;21993;42.672;23.296;2023-08-30T04:57:10;7.13;;;4.00;;
35891;SDS011;21993;42.672;23.296;2023-08-30T04:59:39;9.87;;;3.93;;
35891;SDS011;21993;42.672;23.296;2023-08-30T05:02:05;5.73;;;3.17;;
35891;SDS011;21993;42.672;23.296;2023-08-30T05:04:30;5.43;;;3.10;;
35891;SDS011;21993;42.672;23.296;2023-08-30T05:06:56;7.57;;;3.53;;
35891;SDS011;21993;42.672;23.296;2023-08-30T05:09:21;5.87;;;3.40;;
35891;SDS011;21993;42.672;23.296;2023-08-30T05:11:49;3.87;;;2.70;;
35891;SDS011;21993;42.672;23.296;2023-08-30T05:14:17;7.43;;;3.07;;
35891;SDS011;21993;42.672;23.296;2023-08-30T05:16:43;7.13;;;3.27;;
35891;SDS011;21993;42.672;23.296;2023-08-30T05:19:08;4.77;;;3.23;;
35891;SDS011;21993;42.672;23.296;2023-08-30T05:21:33;7.07;;;3.33;;
35891;SDS011;21993;42.672;23.296;2023-08-30T05:23:59;7.20;;;3.37;;
35891;SDS011;21993;42.672;23.296;2023-08-30T05:26:24;5.50;;;3.47;;
35891;SDS011;21993;42.672;23.296;2023-08-30T05:28:50;5.67;;;3.40;;
35891;SDS011;21993;42.672;23.296;2023-08-30T05:31:15;4.57;;;3.00;;
35891;SDS011;21993;42.672;23.296;2023-08-30T05:33:40;6.47;;;3.50;;
35891;SDS011;21993;42.672;23.296;2023-08-30T05:36:06;5.37;;;3.00;;
35891;SDS011;21993;42.672;23.296;2023-08-30T05:38:31;4.73;;;3.03;;
35891;SDS011;21993;42.672;23.296;2023-08-30T05:40:57;7.53;;;3.23;;
35891;SDS011;21993;42.672;23.296;2023-08-30T05:43:22;4.40;;;3.00;;
35891;SDS011;21993;42.672;23.296;2023-08-30T05:45:47;6.27;;;3.63;;
35891;SDS011;21993;42.672;23.296;2023-08-30T05:48:13;4.60;;;3.27;;
35891;SDS011;21993;42.672;23.296;2023-08-30T05:50:38;6.50;;;3.63;;
35891;SDS011;21993;42.672;23.296;2023-08-30T05:53:04;7.63;;;3.37;;
35891;SDS011;21993;42.672;23.296;2023-08-30T05:55:30;5.60;;;2.93;;
35891;SDS011;21993;42.672;23.296;2023-08-30T05:57:55;7.57;;;3.33;;
35891;SDS011;21993;42.672;23.296;2023-08-30T06:00:20;6.40;;;3.43;;
35891;SDS011;21993;42.672;23.296;2023-08-30T06:02:47;5.47;;;2.87;;
35891;SDS011;21993;42.672;23.296;2023-08-30T06:05:12;3.97;;;3.63;;
35891;SDS011;21993;42.672;23.296;2023-08-30T06:07:37;5.57;;;3.20;;
35891;SDS011;21993;42.672;23.296;2023-08-30T06:10:03;4.03;;;3.03;;
35891;SDS011;21993;42.672;23.296;2023-08-30T06:12:29;4.90;;;3.20;;
35891;SDS011;21993;42.672;23.296;2023-08-30T06:14:55;8.23;;;3.27;;
35891;SDS011;21993;42.672;23.296;2023-08-30T06:17:21;7.17;;;3.37;;
35891;SDS011;21993;42.672;23.296;2023-08-30T06:19:47;6.63;;;3.10;;
35891;SDS011;21993;42.672;23.296;2023-08-30T06:22:12;4.27;;;3.10;;
35891;SDS011;21993;42.672;23.296;2023-08-30T06:24:38;6.00;;;3.63;;
35891;SDS011;21993;42.672;23.296;2023-08-30T06:27:04;7.53;;;3.67;;
35891;SDS011;21993;42.672;23.296;2023-08-30T06:29:29;5.70;;;3.27;;
35891;SDS011;21993;42.672;23.296;2023-08-30T06:31:55;5.37;;;3.23;;
35891;SDS011;21993;42.672;23.296;2023-08-30T06:34:20;5.73;;;2.90;;
35891;SDS011;21993;42.672;23.296;2023-08-30T06:36:46;5.73;;;3.00;;
35891;SDS011;21993;42.672;23.296;2023-08-30T06:39:11;4.70;;;3.10;;
35891;SDS011;21993;42.672;23.296;2023-08-30T06:41:36;3.53;;;2.73;;
35891;SDS011;21993;42.672;23.296;2023-08-30T06:44:02;4.50;;;2.93;;
35891;SDS011;21993;42.672;23.296;2023-08-30T06:46:28;6.33;;;3.23;;
35891;SDS011;21993;42.672;23.296;2023-08-30T06:48:53;4.03;;;3.00;;
35891;SDS011;21993;42.672;23.296;2023-08-30T06:51:19;5.93;;;3.10;;
35891;SDS011;21993;42.672;23.296;2023-08-30T06:53:44;5.27;;;3.20;;
35891;SDS011;21993;42.672;23.296;2023-08-30T06:56:11;4.20;;;3.00;;
35891;SDS011;21993;42.672;23.296;2023-08-30T06:58:36;6.07;;;3.23;;
35891;SDS011;21993;42.672;23.296;2023-08-30T07:01:01;6.43;;;3.20;;
35891;SDS011;21993;42.672;23.296;2023-08-30T07:03:28;6.27;;;2.93;;
35891;SDS011;21993;42.672;23.296;2023-08-30T07:05:53;8.30;;;3.43;;
35891;SDS011;21993;42.672;23.296;2023-08-30T07:08:19;5.67;;;3.10;;
35891;SDS011;21993;42.672;23.296;2023-08-30T07:10:44;11.10;;;3.47;;
35891;SDS011;21993;42.672;23.296;2023-08-30T07:13:10;4.27;;;2.93;;
35891;SDS011;21993;42.672;23.296;2023-08-30T07:15:37;5.13;;;3.07;;
35891;SDS011;21993;42.672;23.296;2023-08-30T07:18:07;5.87;;;3.00;;
35891;SDS011;21993;42.672;23.296;2023-08-30T07:20:33;8.57;;;3.97;;
35891;SDS011;21993;42.672;23.296;2023-08-30T07:23:02;4.13;;;3.20;;
35891;SDS011;21993;42.672;23.296;2023-08-30T07:25:31;6.53;;;3.07;;
35891;SDS011;21993;42.672;23.296;2023-08-30T07:28:01;4.67;;;4.13;;
35891;SDS011;21993;42.672;23.296;2023-08-30T07:30:27;6.97;;;3.70;;
35891;SDS011;21993;42.672;23.296;2023-08-30T07:32:53;8.70;;;4.03;;
35891;SDS011;21993;42.672;23.296;2023-08-30T07:35:19;5.63;;;3.63;;
35891;SDS011;21993;42.672;23.296;2023-08-30T07:37:44;8.17;;;5.07;;
35891;SDS011;21993;42.672;23.296;2023-08-30T07:40:10;6.90;;;3.40;;
35891;SDS011;21993;42.672;23.296;2023-08-30T07:42:36;6.27;;;3.37;;
35891;SDS011;21993;42.672;23.296;2023-08-30T07:45:01;6.57;;;3.80;;
35891;SDS011;21993;42.672;23.296;2023-08-30T07:47:29;4.77;;;3.40;;
35891;SDS011;21993;42.672;23.296;2023-08-30T07:49:54;5.23;;;3.70;;
35891;SDS011;21993;42.672;23.296;2023-08-30T07:52:20;3.30;;;3.00;;
35891;SDS011;21993;42.672;23.296;2023-08-30T07:54:45;7.60;;;3.87;;
35891;SDS011;21993;42.672;23.296;2023-08-30T07:57:10;7.67;;;3.23;;
35891;SDS011;21993;42.672;23.296;2023-08-30T07:59:36;4.80;;;2.60;;
35891;SDS011;21993;42.672;23.296;2023-08-30T08:02:02;7.73;;;3.20;;
35891;SDS011;21993;42.672;23.296;2023-08-30T08:04:28;10.77;;;3.27;;
35891;SDS011;21993;42.672;23.296;2023-08-30T08:06:54;5.47;;;3.20;;
35891;SDS011;21993;42.672;23.296;2023-08-30T08:09:20;6.67;;;3.37;;
35891;SDS011;21993;42.672;23.296;2023-08-30T08:11:48;6.63;;;3.27;;
35891;SDS011;21993;42.672;23.296;2023-08-30T08:14:14;10.03;;;3.70;;
35891;SDS011;21993;42.672;23.296;2023-08-30T08:16:40;5.17;;;3.60;;
35891;SDS011;21993;42.672;23.296;2023-08-30T08:19:05;5.20;;;3.33;;
35891;SDS011;21993;42.672;23.296;2023-08-30T08:21:32;5.00;;;3.17;;
35891;SDS011;21993;42.672;23.296;2023-08-30T08:23:59;4.43;;;2.80;;
35891;SDS011;21993;42.672;23.296;2023-08-30T08:26:25;5.83;;;2.90;;
35891;SDS011;21993;42.672;23.296;2023-08-30T08:28:51;7.57;;;3.50;;
35891;SDS011;21993;42.672;23.296;2023-08-30T08:31:18;4.60;;;3.23;;
35891;SDS011;21993;42.672;23.296;2023-08-30T08:33:44;11.33;;;3.60;;
35891;SDS011;21993;42.672;23.296;2023-08-30T08:36:09;5.57;;;3.67;;
35891;SDS011;21993;42.672;23.296;2023-08-30T08:38:34;6.67;;;3.20;;
35891;SDS011;21993;42.672;23.296;2023-08-30T08:41:04;4.43;;;3.23;;
35891;SDS011;21993;42.672;23.296;2023-08-30T08:43:32;5.67;;;3.67;;
35891;SDS011;21993;42.672;23.296;2023-08-30T08:46:01;6.33;;;3.40;;
35891;SDS011;21993;42.672;23.296;2023-08-30T08:48:28;4.30;;;3.10;;
35891;SDS011;21993;42.672;23.296;2023-08-30T08:50:54;4.87;;;3.17;;
35891;SDS011;21993;42.672;23.296;2023-08-30T08:53:22;4.77;;;3.53;;
35891;SDS011;21993;42.672;23.296;2023-08-30T08:55:48;7.93;;;3.67;;
35891;SDS011;21993;42.672;23.296;2023-08-30T08:58:14;15.80;;;5.70;;
35891;SDS011;21993;42.672;23.296;2023-08-30T09:00:43;4.50;;;3.07;;
35891;SDS011;21993;42.672;23.296;2023-08-30T09:03:10;6.10;;;3.33;;
35891;SDS011;21993;42.672;23.296;2023-08-30T09:05:37;8.30;;;3.40;;
35891;SDS011;21993;42.672;23.296;2023-08-30T09:08:03;6.17;;;3.00;;
35891;SDS011;21993;42.672;23.296;2023-08-30T09:10:31;3.03;;;2.70;;
35891;SDS011;21993;42.672;23.296;2023-08-30T09:12:57;5.13;;;3.17;;
35891;SDS011;21993;42.672;23.296;2023-08-30T09:15:30;7.83;;;3.40;;
35891;SDS011;21993;42.672;23.296;2023-08-30T09:17:56;4.00;;;3.20;;
35891;SDS011;21993;42.672;23.296;2023-08-30T09:20:21;4.73;;;3.30;;
35891;SDS011;21993;42.672;23.296;2023-08-30T09:22:47;8.17;;;3.90;;
35891;SDS011;21993;42.672;23.296;2023-08-30T09:25:22;4.93;;;3.53;;
35891;SDS011;21993;42.672;23.296;2023-08-30T09:27:50;6.03;;;4.00;;
35891;SDS011;21993;42.672;23.296;2023-08-30T09:30:20;4.60;;;3.30;;
35891;SDS011;21993;42.672;23.296;2023-08-30T09:32:46;9.70;;;3.43;;
35891;SDS011;21993;42.672;23.296;2023-08-30T09:35:12;4.13;;;3.40;;
35891;SDS011;21993;42.672;23.296;2023-08-30T09:37:38;6.60;;;4.00;;
35891;SDS011;21993;42.672;23.296;2023-08-30T09:40:04;7.03;;;4.30;;
35891;SDS011;21993;42.672;23.296;2023-08-30T09:42:30;7.53;;;4.03;;
35891;SDS011;21993;42.672;23.296;2023-08-30T09:44:56;8.17;;;4.00;;
35891;SDS011;21993;42.672;23.296;2023-08-30T09:47:23;8.37;;;3.73;;
35891;SDS011;21993;42.672;23.296;2023-08-30T09:49:50;5.73;;;3.70;;
35891;SDS011;21993;42.672;23.296;2023-08-30T09:52:19;4.43;;;3.53;;
35891;SDS011;21993;42.672;23.296;2023-08-30T09:54:48;5.87;;;4.07;;
35891;SDS011;21993;42.672;23.296;2023-08-30T09:57:13;7.27;;;4.20;;
35891;SDS011;21993;42.672;23.296;2023-08-30T09:59:39;9.60;;;4.90;;
35891;SDS011;21993;42.672;23.296;2023-08-30T10:02:05;6.77;;;4.47;;
35891;SDS011;21993;42.672;23.296;2023-08-30T10:04:33;6.53;;;4.20;;
35891;SDS011;21993;42.672;23.296;2023-08-30T10:07:02;8.00;;;3.87;;
35891;SDS011;21993;42.672;23.296;2023-08-30T10:09:29;5.90;;;4.50;;
35891;SDS011;21993;42.672;23.296;2023-08-30T10:11:55;4.53;;;4.07;;
35891;SDS011;21993;42.672;23.296;2023-08-30T10:14:23;7.23;;;4.63;;
35891;SDS011;21993;42.672;23.296;2023-08-30T10:16:48;9.63;;;5.37;;
35891;SDS011;21993;42.672;23.296;2023-08-30T10:19:17;6.50;;;4.13;;
35891;SDS011;21993;42.672;23.296;2023-08-30T10:21:48;7.33;;;4.40;;
35891;SDS011;21993;42.672;23.296;2023-08-30T10:24:27;7.80;;;4.90;;
35891;SDS011;21993;42.672;23.296;2023-08-30T10:26:54;5.97;;;4.17;;
35891;SDS011;21993;42.672;23.296;2023-08-30T10:29:21;5.90;;;4.20;;
35891;SDS011;21993;42.672;23.296;2023-08-30T10:31:48;5.37;;;4.30;;
35891;SDS011;21993;42.672;23.296;2023-08-30T10:34:14;8.17;;;5.00;;
35891;SDS011;21993;42.672;23.296;2023-08-30T10:36:42;5.67;;;5.13;;
35891;SDS011;21993;42.672;23.296;2023-08-30T10:39:13;7.13;;;4.93;;
35891;SDS011;21993;42.672;23.296;2023-08-30T10:41:55;9.33;;;5.13;;
35891;SDS011;21993;42.672;23.296;2023-08-30T10:44:22;5.57;;;5.00;;
35891;SDS011;21993;42.672;23.296;2023-08-30T10:46:51;7.53;;;5.40;;
35891;SDS011;21993;42.672;23.296;2023-08-30T10:49:18;6.63;;;4.80;;
35891;SDS011;21993;42.672;23.296;2023-08-30T10:51:43;5.47;;;4.80;;
35891;SDS011;21993;42.672;23.296;2023-08-30T10:54:15;7.80;;;5.23;;
35891;SDS011;21993;42.672;23.296;2023-08-30T10:56:53;9.03;;;5.13;;
35891;SDS011;21993;42.672;23.296;2023-08-30T10:59:22;7.07;;;5.27;;
35891;SDS011;21993;42.672;23.296;2023-08-30T11:01:49;6.37;;;4.63;;
35891;SDS011;21993;42.672;23.296;2023-08-30T11:04:19;12.90;;;6.20;;
35891;SDS011;21993;42.672;23.296;2023-08-30T11:06:46;8.17;;;4.67;;
35891;SDS011;21993;42.672;23.296;2023-08-30T11:09:13;6.33;;;5.13;;
35891;SDS011;21993;42.672;23.296;2023-08-30T11:11:39;6.60;;;4.37;;
35891;SDS011;21993;42.672;23.296;2023-08-30T11:14:09;6.27;;;4.57;;
35891;SDS011;21993;42.672;23.296;2023-08-30T11:16:35;6.83;;;4.93;;
35891;SDS011;21993;42.672;23.296;2023-08-30T11:19:01;8.97;;;5.10;;
35891;SDS011;21993;42.672;23.296;2023-08-30T11:21:28;8.43;;;5.30;;
35891;SDS011;21993;42.672;23.296;2023-08-30T11:23:55;8.07;;;4.97;;
35891;SDS011;21993;42.672;23.296;2023-08-30T11:26:21;12.50;;;4.93;;
35891;SDS011;21993;42.672;23.296;2023-08-30T11:28:46;7.53;;;4.97;;
35891;SDS011;21993;42.672;23.296;2023-08-30T11:33:54;6.40;;;4.90;;
35891;SDS011;21993;42.672;23.296;2023-08-30T11:36:22;4.63;;;4.03;;
35891;SDS011;21993;42.672;23.296;2023-08-30T11:38:51;5.93;;;4.30;;
35891;SDS011;21993;42.672;23.296;2023-08-30T11:41:17;7.47;;;4.83;;
35891;SDS011;21993;42.672;23.296;2023-08-30T11:43:44;6.70;;;4.47;;
35891;SDS011;21993;42.672;23.296;2023-08-30T11:46:10;6.83;;;4.97;;
35891;SDS011;21993;42.672;23.296;2023-08-30T11:48:37;6.90;;;4.97;;
35891;SDS011;21993;42.672;23.296;2023-08-30T11:51:04;7.33;;;5.70;;
35891;SDS011;21993;42.672;23.296;2023-08-30T11:53:30;5.23;;;4.27;;
35891;SDS011;21993;42.672;23.296;2023-08-30T11:55:55;5.17;;;4.30;;
35891;SDS011;21993;42.672;23.296;2023-08-30T11:58:21;6.23;;;4.60;;
35891;SDS011;21993;42.672;23.296;2023-08-30T12:00:49;7.50;;;4.67;;
35891;SDS011;21993;42.672;23.296;2023-08-30T12:03:15;6.13;;;4.07;;
35891;SDS011;21993;42.672;23.296;2023-08-30T12:05:47;7.97;;;4.90;;
35891;SDS011;21993;42.672;23.296;2023-08-30T12:08:23;8.30;;;4.73;;
35891;SDS011;21993;42.672;23.296;2023-08-30T12:10:53;5.20;;;4.70;;
35891;SDS011;21993;42.672;23.296;2023-08-30T12:13:26;5.87;;;4.47;;
35891;SDS011;21993;42.672;23.296;2023-08-30T12:15:52;8.00;;;5.20;;
35891;SDS011;21993;42.672;23.296;2023-08-30T12:18:22;8.47;;;4.70;;
35891;SDS011;21993;42.672;23.296;2023-08-30T12:20:55;8.73;;;5.33;;
35891;SDS011;21993;42.672;23.296;2023-08-30T12:23:26;7.63;;;4.80;;
35891;SDS011;21993;42.672;23.296;2023-08-30T12:25:56;7.03;;;4.70;;
35891;SDS011;21993;42.672;23.296;2023-08-30T12:28:22;10.77;;;4.67;;
35891;SDS011;21993;42.672;23.296;2023-08-30T12:30:48;6.03;;;4.70;;
35891;SDS011;21993;42.672;23.296;2023-08-30T12:33:15;8.00;;;5.30;;
35891;SDS011;21993;42.672;23.296;2023-08-30T12:35:41;7.63;;;6.10;;
35891;SDS011;21993;42.672;23.296;2023-08-30T12:38:06;10.50;;;6.20;;
35891;SDS011;21993;42.672;23.296;2023-08-30T12:40:32;8.00;;;5.40;;
35891;SDS011;21993;42.672;23.296;2023-08-30T12:42:57;8.70;;;4.90;;
35891;SDS011;21993;42.672;23.296;2023-08-30T12:45:23;7.50;;;4.83;;
35891;SDS011;21993;42.672;23.296;2023-08-30T12:47:48;7.20;;;4.93;;
35891;SDS011;21993;42.672;23.296;2023-08-30T12:50:13;7.33;;;5.57;;
35891;SDS011;21993;42.672;23.296;2023-08-30T12:52:39;5.90;;;4.30;;
35891;SDS011;21993;42.672;23.296;2023-08-30T12:55:04;7.17;;;4.33;;
35891;SDS011;21993;42.672;23.296;2023-08-30T12:57:30;8.93;;;4.77;;
35891;SDS011;21993;42.672;23.296;2023-08-30T12:59:55;6.90;;;5.10;;
35891;SDS011;21993;42.672;23.296;2023-08-30T13:02:20;8.60;;;4.33;;
35891;SDS011;21993;42.672;23.296;2023-08-30T13:04:46;8.00;;;4.43;;
35891;SDS011;21993;42.672;23.296;2023-08-30T13:07:11;8.90;;;4.23;;
35891;SDS011;21993;42.672;23.296;2023-08-30T13:09:37;5.80;;;4.00;;
35891;SDS011;21993;42.672;23.296;2023-08-30T13:12:02;6.10;;;4.40;;
35891;SDS011;21993;42.672;23.296;2023-08-30T13:14:28;6.13;;;4.00;;
35891;SDS011;21993;42.672;23.296;2023-08-30T13:16:54;5.17;;;4.13;;
35891;SDS011;21993;42.672;23.296;2023-08-30T13:19:20;7.13;;;4.30;;
35891;SDS011;21993;42.672;23.296;2023-08-30T13:21:45;7.80;;;4.30;;
35891;SDS011;21993;42.672;23.296;2023-08-30T13:24:10;6.93;;;4.13;;
35891;SDS011;21993;42.672;23.296;2023-08-30T13:26:37;7.40;;;4.20;;
35891;SDS011;21993;42.672;23.296;2023-08-30T13:29:02;5.13;;;4.10;;
35891;SDS011;21993;42.672;23.296;2023-08-30T13:31:28;7.80;;;3.70;;
35891;SDS011;21993;42.672;23.296;2023-08-30T13:33:53;6.93;;;4.33;;
35891;SDS011;21993;42.672;23.296;2023-08-30T13:36:18;5.30;;;4.07;;
35891;SDS011;21993;42.672;23.296;2023-08-30T13:38:44;7.53;;;3.70;;
35891;SDS011;21993;42.672;23.296;2023-08-30T13:41:09;6.57;;;4.00;;
35891;SDS011;21993;42.672;23.296;2023-08-30T13:43:35;8.37;;;3.53;;
35891;SDS011;21993;42.672;23.296;2023-08-30T13:46:00;8.33;;;3.80;;
35891;SDS011;21993;42.672;23.296;2023-08-30T13:48:25;5.37;;;3.83;;
35891;SDS011;21993;42.672;23.296;2023-08-30T13:50:51;7.60;;;3.90;;
35891;SDS011;21993;42.672;23.296;2023-08-30T13:53:16;8.17;;;4.07;;
35891;SDS011;21993;42.672;23.296;2023-08-30T13:55:46;10.93;;;4.67;;
35891;SDS011;21993;42.672;23.296;2023-08-30T13:58:13;5.57;;;3.50;;
35891;SDS011;21993;42.672;23.296;2023-08-30T14:00:39;5.30;;;3.60;;
35891;SDS011;21993;42.672;23.296;2023-08-30T14:03:04;5.10;;;3.47;;
35891;SDS011;21993;42.672;23.296;2023-08-30T14:05:30;5.83;;;3.73;;
35891;SDS011;21993;42.672;23.296;2023-08-30T14:07:55;6.03;;;3.47;;
35891;SDS011;21993;42.672;23.296;2023-08-30T14:10:21;5.83;;;3.80;;
35891;SDS011;21993;42.672;23.296;2023-08-30T14:12:46;4.37;;;3.57;;
35891;SDS011;21993;42.672;23.296;2023-08-30T14:15:12;4.90;;;3.40;;
35891;SDS011;21993;42.672;23.296;2023-08-30T14:17:37;5.23;;;3.50;;
35891;SDS011;21993;42.672;23.296;2023-08-30T14:20:03;4.40;;;3.57;;
35891;SDS011;21993;42.672;23.296;2023-08-30T14:22:28;3.77;;;3.07;;
35891;SDS011;21993;42.672;23.296;2023-08-30T14:24:54;5.50;;;3.90;;
35891;SDS011;21993;42.672;23.296;2023-08-30T14:27:19;6.67;;;3.70;;
35891;SDS011;21993;42.672;23.296;2023-08-30T14:29:45;8.27;;;3.17;;
35891;SDS011;21993;42.672;23.296;2023-08-30T14:32:10;3.80;;;3.00;;
35891;SDS011;21993;42.672;23.296;2023-08-30T14:34:36;4.07;;;2.93;;